createdAt,value
2022-08-09T00:00:00.951Z,21.70
2022-08-09T00:02:34.812Z,21.70
2022-08-09T00:06:19.384Z,21.70
2022-08-09T00:07:52.463Z,21.60
2022-08-09T00:10:24.659Z,21.50
2022-08-09T00:12:53.974Z,21.50
2022-08-09T00:15:26.770Z,21.50
2022-08-09T00:18:05.077Z,21.40
2022-08-09T00:20:42.452Z,21.40
2022-08-09T00:23:55.641Z,21.40
2022-08-09T00:26:05.684Z,21.30
2022-08-09T00:28:35.104Z,21.30
2022-08-09T00:31:09.125Z,21.30
2022-08-09T00:33:52.944Z,21.30
2022-08-09T00:36:21.020Z,21.20
2022-08-09T00:38:50.552Z,21.20
2022-08-09T00:44:18.725Z,21.20
2022-08-09T00:44:20.514Z,21.10
2022-08-09T00:47:05.086Z,21.10
2022-08-09T00:49:33.758Z,21.00
2022-08-09T00:52:05.573Z,21.00
2022-08-09T00:54:36.022Z,21.00
2022-08-09T00:57:10.393Z,20.90
2022-08-09T00:59:46.232Z,20.90
2022-08-09T01:02:16.680Z,20.80
2022-08-09T01:04:49.603Z,20.80
2022-08-09T01:07:37.850Z,20.80
2022-08-09T01:10:11.400Z,20.80
2022-08-09T01:12:41.944Z,20.70
2022-08-09T01:15:16.880Z,20.70
2022-08-09T01:17:47.036Z,20.70
2022-08-09T01:20:20.124Z,20.60
2022-08-09T01:24:02.523Z,20.60
2022-08-09T01:26:14.999Z,20.60
2022-08-09T01:28:45.884Z,20.50
2022-08-09T01:32:28.174Z,20.50
2022-08-09T01:34:04.906Z,20.40
2022-08-09T01:36:37.348Z,20.40
2022-08-09T01:39:07.605Z,20.40
2022-08-09T01:41:36.632Z,20.40
2022-08-09T01:44:23.613Z,20.30
2022-08-09T01:46:53.087Z,20.30
2022-08-09T01:49:24.319Z,20.30
2022-08-09T01:51:54.922Z,20.40
2022-08-09T01:54:23.995Z,20.30
2022-08-09T01:56:52.919Z,20.20
2022-08-09T01:59:21.516Z,20.20
2022-08-09T02:01:59.925Z,20.10
2022-08-09T02:04:29.359Z,20.10
2022-08-09T02:07:18.497Z,20.20
2022-08-09T02:10:04.035Z,20.00
2022-08-09T02:12:33.358Z,20.00
2022-08-09T02:15:02.997Z,19.90
2022-08-09T02:18:09.813Z,19.90
2022-08-09T02:20:26.613Z,19.90
2022-08-09T02:23:03.854Z,19.80
2022-08-09T02:25:42.370Z,19.80
2022-08-09T02:28:17.749Z,19.70
2022-08-09T02:30:46.628Z,19.80
2022-08-09T02:33:19.393Z,19.70
2022-08-09T02:36:01.689Z,19.70
2022-08-09T02:38:32.390Z,19.60
2022-08-09T02:41:04.144Z,19.60
2022-08-09T02:43:47.806Z,19.50
2022-08-09T02:46:21.703Z,19.50
2022-08-09T02:48:51.369Z,19.50
2022-08-09T02:51:21.666Z,19.50
2022-08-09T02:53:52.915Z,19.50
2022-08-09T02:56:29.197Z,19.50
2022-08-09T02:58:58.095Z,19.40
2022-08-09T03:01:29.112Z,19.30
2022-08-09T03:04:19.259Z,19.30
2022-08-09T03:06:48.887Z,19.20
2022-08-09T03:09:17.601Z,19.20
2022-08-09T03:12:09.685Z,19.20
2022-08-09T03:14:33.972Z,19.20
2022-08-09T03:17:05.710Z,19.10
2022-08-09T03:19:58.054Z,19.10
2022-08-09T03:22:25.544Z,19.00
2022-08-09T03:25:05.715Z,18.90
2022-08-09T03:27:48.002Z,18.80
2022-08-09T03:30:30.056Z,18.80
2022-08-09T03:33:05.810Z,18.80
2022-08-09T03:35:44.259Z,18.70
2022-08-09T03:38:30.659Z,18.70
2022-08-09T03:40:59.188Z,18.60
2022-08-09T03:43:31.682Z,18.60
2022-08-09T03:46:03.193Z,18.60
2022-08-09T03:48:51.766Z,18.50
2022-08-09T03:51:43.919Z,18.60
2022-08-09T03:54:11.154Z,18.50
2022-08-09T03:56:41.372Z,18.50
2022-08-09T03:59:17.151Z,18.50
2022-08-09T04:01:50.505Z,18.40
2022-08-09T04:04:19.016Z,18.40
2022-08-09T04:06:48.961Z,18.30
2022-08-09T04:09:41.786Z,18.30
2022-08-09T04:12:30.783Z,18.30
2022-08-09T04:15:11.395Z,18.30
2022-08-09T04:17:42.371Z,18.30
2022-08-09T04:20:12.703Z,18.30
2022-08-09T04:22:44.415Z,18.30
2022-08-09T04:25:12.879Z,18.30
2022-08-09T04:27:42.090Z,18.20
2022-08-09T04:30:15.715Z,18.20
2022-08-09T04:32:46.099Z,18.20
2022-08-09T04:35:15.379Z,18.20
2022-08-09T04:37:45.307Z,18.20
2022-08-09T04:40:19.324Z,18.10
2022-08-09T04:42:56.989Z,18.20
2022-08-09T04:45:24.904Z,18.20
2022-08-09T04:48:04.075Z,18.20
2022-08-09T04:50:37.820Z,18.30
2022-08-09T04:53:13.160Z,18.30
2022-08-09T04:55:58.109Z,18.30
2022-08-09T04:58:28.016Z,18.40
2022-08-09T05:00:57.472Z,18.40
2022-08-09T05:03:40.879Z,18.40
2022-08-09T05:06:11.782Z,18.40
2022-08-09T05:08:51.204Z,18.50
2022-08-09T05:11:19.008Z,18.50
2022-08-09T05:13:48.789Z,18.60
2022-08-09T05:16:16.499Z,18.60
2022-08-09T05:18:58.006Z,18.70
2022-08-09T05:21:30.103Z,18.70
2022-08-09T05:24:02.247Z,18.80
2022-08-09T05:26:36.666Z,18.90
2022-08-09T05:29:05.361Z,19.00
2022-08-09T05:31:44.862Z,19.00
2022-08-09T05:34:16.851Z,19.10
2022-08-09T05:36:46.994Z,19.20
2022-08-09T05:39:28.978Z,19.30
2022-08-09T05:42:01.707Z,19.40
2022-08-09T05:44:34.920Z,19.50
2022-08-09T05:47:05.464Z,19.60
2022-08-09T05:50:24.349Z,19.70
2022-08-09T05:52:21.796Z,19.80
2022-08-09T05:54:53.899Z,19.90
2022-08-09T05:57:25.156Z,20.10
2022-08-09T06:00:11.319Z,20.20
2022-08-09T06:02:39.465Z,20.30
2022-08-09T06:05:14.294Z,20.50
2022-08-09T06:07:43.943Z,20.60
2022-08-09T06:10:18.742Z,20.80
2022-08-09T06:12:50.423Z,21.00
2022-08-09T06:15:27.110Z,21.10
2022-08-09T06:17:56.224Z,21.20
2022-08-09T06:20:23.941Z,21.40
2022-08-09T06:22:52.458Z,21.60
2022-08-09T06:25:21.651Z,21.60
2022-08-09T06:27:51.428Z,21.70
2022-08-09T06:30:19.661Z,21.90
2022-08-09T06:32:59.690Z,22.00
2022-08-09T06:35:56.188Z,22.20
2022-08-09T06:38:24.093Z,22.30
2022-08-09T06:41:01.401Z,22.30
2022-08-09T06:43:34.110Z,22.40
2022-08-09T06:46:07.129Z,22.40
2022-08-09T06:48:42.730Z,22.50
2022-08-09T06:51:11.401Z,22.50
2022-08-09T06:53:39.735Z,22.60
2022-08-09T06:56:09.644Z,22.80
2022-08-09T07:00:47.221Z,22.80
2022-08-09T07:01:27.528Z,22.70
2022-08-09T07:04:04.402Z,22.80
2022-08-09T07:06:32.638Z,22.90
2022-08-09T07:09:02.249Z,23.00
2022-08-09T07:11:45.562Z,23.20
2022-08-09T07:14:26.582Z,23.20
2022-08-09T07:16:58.321Z,23.20
2022-08-09T07:19:26.512Z,23.20
2022-08-09T07:21:57.433Z,23.30
2022-08-09T07:24:32.624Z,23.30
2022-08-09T07:27:10.986Z,23.40
2022-08-09T07:29:56.860Z,23.60
2022-08-09T07:32:33.375Z,23.80
2022-08-09T07:35:10.613Z,23.80
2022-08-09T07:37:43.726Z,23.90
2022-08-09T07:40:13.669Z,24.10
2022-08-09T07:42:54.621Z,24.20
2022-08-09T07:45:37.350Z,24.40
2022-08-09T07:48:07.142Z,24.50
2022-08-09T07:50:36.830Z,24.60
2022-08-09T07:53:05.372Z,24.60
2022-08-09T07:55:41.465Z,24.80
2022-08-09T07:58:26.773Z,24.90
2022-08-09T08:00:59.083Z,25.00
2022-08-09T08:03:37.041Z,24.90
2022-08-09T08:06:05.037Z,24.90
2022-08-09T08:09:01.418Z,25.10
2022-08-09T08:12:10.009Z,25.20
2022-08-09T08:14:09.895Z,25.30
2022-08-09T08:16:39.685Z,25.50
2022-08-09T08:19:18.992Z,25.70
2022-08-09T08:21:52.634Z,25.90
2022-08-09T08:24:20.845Z,26.00
2022-08-09T08:26:56.201Z,26.10
2022-08-09T08:29:27.705Z,26.20
2022-08-09T08:32:03.121Z,26.30
2022-08-09T08:34:34.918Z,26.20
2022-08-09T08:37:04.994Z,26.30
2022-08-09T08:39:43.383Z,26.50
2022-08-09T08:42:12.389Z,26.70
2022-08-09T08:44:42.631Z,26.90
2022-08-09T08:47:13.205Z,26.90
2022-08-09T08:49:46.870Z,26.80
2022-08-09T08:52:53.069Z,26.80
2022-08-09T08:55:05.485Z,27.00
2022-08-09T08:57:35.309Z,27.30
2022-08-09T09:00:12.727Z,27.50
2022-08-09T09:02:52.346Z,27.80
2022-08-09T09:05:57.482Z,27.80
2022-08-09T09:08:30.437Z,27.90
2022-08-09T09:11:01.620Z,28.00
2022-08-09T09:13:34.675Z,27.70
2022-08-09T09:16:11.173Z,27.70
2022-08-09T09:18:43.363Z,28.00
2022-08-09T09:21:16.525Z,28.10
2022-08-09T09:23:58.016Z,28.20
2022-08-09T09:26:34.832Z,28.70
2022-08-09T09:29:11.184Z,28.90
2022-08-09T09:32:05.774Z,29.00
2022-08-09T09:34:39.285Z,28.90
2022-08-09T09:37:31.911Z,29.10
2022-08-09T09:40:00.746Z,29.30
2022-08-09T09:42:31.063Z,29.60
2022-08-09T09:44:59.919Z,29.90
2022-08-09T09:47:30.245Z,30.00
2022-08-09T09:50:14.815Z,30.10
2022-08-09T09:52:53.586Z,30.30
2022-08-09T09:55:29.331Z,30.20
2022-08-09T09:58:19.085Z,30.20
2022-08-09T10:00:55.274Z,30.30
2022-08-09T10:03:40.155Z,30.30
2022-08-09T10:06:08.212Z,30.60
2022-08-09T10:08:54.608Z,30.60
2022-08-09T10:11:59.442Z,30.70
2022-08-09T10:14:27.378Z,30.60
2022-08-09T10:17:40.683Z,30.60
2022-08-09T10:19:52.977Z,30.80
2022-08-09T10:22:32.721Z,31.10
2022-08-09T10:25:03.588Z,31.30
2022-08-09T10:27:56.239Z,31.70
2022-08-09T10:32:11.820Z,31.70
2022-08-09T10:34:05.282Z,31.50
2022-08-09T10:36:05.115Z,31.70
2022-08-09T10:38:34.019Z,31.80
2022-08-09T10:41:21.065Z,32.00
2022-08-09T10:43:59.273Z,31.70
2022-08-09T10:46:47.440Z,31.50
2022-08-09T10:49:42.409Z,31.50
2022-08-09T10:52:20.505Z,31.30
2022-08-09T10:54:51.181Z,31.60
2022-08-09T10:57:23.172Z,31.90
2022-08-09T10:59:57.322Z,32.40
2022-08-09T11:03:10.961Z,32.40
2022-08-09T11:05:30.215Z,32.50
2022-08-09T11:08:19.664Z,32.50
2022-08-09T11:11:08.468Z,32.50
2022-08-09T11:13:54.099Z,32.60
2022-08-09T11:16:37.971Z,32.40
2022-08-09T11:19:09.772Z,32.50
2022-08-09T11:21:57.552Z,32.30
2022-08-09T11:25:05.393Z,32.40
2022-08-09T11:28:03.664Z,32.50
2022-08-09T11:30:34.274Z,32.30
2022-08-09T11:33:04.467Z,32.00
2022-08-09T11:35:50.310Z,32.20
2022-08-09T11:38:21.878Z,32.40
2022-08-09T11:40:53.128Z,32.40
2022-08-09T11:43:39.600Z,32.40
2022-08-09T11:46:07.395Z,32.70
2022-08-09T11:48:46.439Z,32.80
2022-08-09T11:52:56.799Z,33.10
2022-08-09T11:54:13.483Z,33.40
2022-08-09T11:56:48.499Z,33.40
2022-08-09T11:59:30.490Z,33.90
2022-08-09T12:02:35.212Z,33.40
2022-08-09T12:04:54.714Z,33.30
2022-08-09T12:07:41.675Z,33.40
2022-08-09T12:10:31.968Z,33.30
2022-08-09T12:13:03.404Z,33.30
2022-08-09T12:15:52.216Z,33.50
2022-08-09T12:18:25.982Z,34.10
2022-08-09T12:20:59.138Z,33.70
2022-08-09T12:23:56.271Z,33.20
2022-08-09T12:26:19.839Z,33.10
2022-08-09T12:29:11.816Z,33.50
2022-08-09T12:31:59.150Z,34.20
2022-08-09T12:34:33.758Z,34.60
2022-08-09T12:37:21.733Z,34.40
2022-08-09T12:40:00.017Z,34.60
2022-08-09T12:42:29.079Z,34.70
2022-08-09T12:45:00.272Z,34.20
2022-08-09T12:47:28.713Z,34.30
2022-08-09T12:50:23.642Z,34.30
2022-08-09T12:53:09.266Z,33.80
2022-08-09T12:56:11.502Z,33.80
2022-08-09T12:58:28.875Z,33.60
2022-08-09T13:00:58.659Z,33.50
2022-08-09T13:03:53.642Z,33.80
2022-08-09T13:06:25.158Z,34.40
2022-08-09T13:09:06.147Z,35.00
2022-08-09T13:11:35.052Z,35.60
2022-08-09T13:14:41.192Z,36.20
2022-08-09T13:17:04.480Z,36.00
2022-08-09T13:20:08.324Z,35.50
2022-08-09T13:22:37.349Z,35.70
2022-08-09T13:25:13.785Z,35.70
2022-08-09T13:27:48.861Z,35.30
2022-08-09T13:30:50.735Z,34.50
2022-08-09T13:33:17.344Z,34.30
2022-08-09T13:36:24.271Z,35.00
2022-08-09T13:38:57.869Z,34.80
2022-08-09T13:41:58.669Z,35.40
2022-08-09T13:44:13.834Z,36.00
2022-08-09T13:47:29.130Z,35.90
2022-08-09T13:49:39.874Z,36.00
2022-08-09T13:52:22.338Z,35.20
2022-08-09T13:55:00.820Z,35.70
2022-08-09T13:57:37.180Z,34.60
2022-08-09T14:00:09.369Z,34.50
2022-08-09T14:02:42.324Z,34.80
2022-08-09T14:06:00.133Z,34.90
2022-08-09T14:08:17.319Z,35.00
2022-08-09T14:10:52.444Z,35.10
2022-08-09T14:14:15.971Z,34.80
2022-08-09T14:16:14.295Z,35.00
2022-08-09T14:18:45.635Z,35.90
2022-08-09T14:21:20.355Z,35.60
2022-08-09T14:23:54.543Z,35.80
2022-08-09T14:26:25.365Z,35.90
2022-08-09T14:28:58.183Z,36.20
2022-08-09T14:31:49.883Z,35.90
2022-08-09T14:34:14.370Z,35.50
2022-08-09T14:36:46.879Z,35.50
2022-08-09T14:39:17.270Z,35.70
2022-08-09T14:41:45.139Z,36.00
2022-08-09T14:44:15.827Z,36.20
2022-08-09T14:47:26.225Z,36.30
2022-08-09T14:50:01.338Z,36.40
2022-08-09T14:52:31.659Z,35.70
2022-08-09T14:54:59.626Z,34.90
2022-08-09T14:57:32.082Z,34.50
2022-08-09T15:00:11.596Z,34.20
2022-08-09T15:02:40.184Z,34.30
2022-08-09T15:05:10.426Z,34.80
2022-08-09T15:07:39.916Z,35.20
2022-08-09T15:10:14.562Z,34.70
2022-08-09T15:12:45.298Z,34.80
2022-08-09T15:15:13.457Z,34.90
2022-08-09T15:17:41.781Z,34.70
2022-08-09T15:20:15.366Z,35.20
2022-08-09T15:24:01.984Z,35.80
2022-08-09T15:25:53.381Z,36.00
2022-08-09T15:31:10.290Z,35.70
2022-08-09T15:34:17.227Z,35.70
2022-08-09T15:36:30.916Z,35.70
2022-08-09T15:39:00.572Z,36.10
2022-08-09T15:41:31.284Z,36.10
2022-08-09T15:44:00.385Z,35.50
2022-08-09T15:46:33.526Z,35.20
2022-08-09T15:49:22.603Z,35.00
2022-08-09T15:52:03.360Z,35.20
2022-08-09T15:54:44.736Z,34.80
2022-08-09T15:57:18.959Z,34.40
2022-08-09T15:59:52.061Z,34.20
2022-08-09T16:02:27.103Z,33.80
2022-08-09T16:04:55.375Z,33.40
2022-08-09T16:07:23.616Z,33.10
2022-08-09T16:10:05.401Z,32.90
2022-08-09T16:12:33.771Z,32.70
2022-08-09T16:15:04.844Z,32.50
2022-08-09T16:17:52.596Z,32.40
2022-08-09T16:20:20.312Z,32.00
2022-08-09T16:22:58.019Z,31.60
2022-08-09T16:25:40.221Z,31.20
2022-08-09T16:28:09.291Z,30.90
2022-08-09T16:30:44.303Z,30.90
2022-08-09T16:33:15.954Z,30.90
2022-08-09T16:35:56.810Z,30.90
2022-08-09T16:38:26.356Z,30.70
2022-08-09T16:40:55.439Z,30.50
2022-08-09T16:43:23.339Z,30.40
2022-08-09T16:45:53.786Z,30.30
2022-08-09T16:48:38.781Z,30.30
2022-08-09T16:51:14.214Z,30.00
2022-08-09T16:54:08.940Z,30.00
2022-08-09T16:56:31.815Z,29.90
2022-08-09T16:58:59.596Z,29.90
2022-08-09T17:01:33.693Z,29.80
2022-08-09T17:04:01.848Z,29.70
2022-08-09T17:06:33.495Z,29.70
2022-08-09T17:09:46.137Z,29.60
2022-08-09T17:12:06.780Z,29.60
2022-08-09T17:14:35.352Z,29.50
2022-08-09T17:17:12.820Z,29.50
2022-08-09T17:20:28.691Z,29.40
2022-08-09T17:22:51.964Z,29.30
2022-08-09T17:25:21.965Z,29.20
2022-08-09T17:27:54.563Z,29.10
2022-08-09T17:30:25.903Z,29.10
2022-08-09T17:32:54.722Z,29.00
2022-08-09T17:35:25.683Z,28.90
2022-08-09T17:38:14.574Z,28.90
2022-08-09T17:40:47.264Z,28.80
2022-08-09T17:43:33.891Z,28.80
2022-08-09T17:46:06.373Z,28.70
2022-08-09T17:48:39.117Z,28.70
2022-08-09T17:51:17.447Z,28.70
2022-08-09T17:53:52.096Z,28.60
2022-08-09T17:56:27.828Z,28.60
2022-08-09T17:58:59.492Z,28.50
2022-08-09T18:01:57.845Z,28.40
2022-08-09T18:04:16.049Z,28.40
2022-08-09T18:06:55.285Z,28.30
2022-08-09T18:09:25.011Z,28.20
2022-08-09T18:12:15.092Z,28.20
2022-08-09T18:14:53.731Z,28.10
2022-08-09T18:17:27.675Z,28.00
2022-08-09T18:20:54.934Z,27.90
2022-08-09T18:23:04.987Z,27.80
2022-08-09T18:25:52.501Z,27.90
2022-08-09T18:30:35.135Z,27.70
2022-08-09T18:31:10.925Z,27.60
2022-08-09T18:33:40.171Z,27.50
2022-08-09T18:36:08.742Z,27.40
2022-08-09T18:38:42.288Z,27.30
2022-08-09T18:41:10.234Z,27.30
2022-08-09T18:43:53.175Z,27.10
2022-08-09T18:46:49.770Z,27.00
2022-08-09T18:49:10.402Z,26.90
2022-08-09T18:51:55.477Z,26.70
2022-08-09T18:54:28.413Z,26.60
2022-08-09T18:56:56.797Z,26.60
2022-08-09T18:59:48.856Z,26.50
2022-08-09T19:02:21.041Z,26.50
2022-08-09T19:05:04.294Z,26.30
2022-08-09T19:08:03.954Z,26.20
2022-08-09T19:10:37.070Z,26.20
2022-08-09T19:13:22.368Z,26.10
2022-08-09T19:15:58.753Z,26.00
2022-08-09T19:18:37.408Z,25.90
2022-08-09T19:21:08.874Z,25.90
2022-08-09T19:24:31.572Z,25.80
2022-08-09T19:26:31.522Z,25.80
2022-08-09T19:29:01.842Z,25.70
2022-08-09T19:31:44.353Z,25.60
2022-08-09T19:34:21.436Z,25.50
2022-08-09T19:36:51.739Z,25.40
2022-08-09T19:39:21.012Z,25.40
2022-08-09T19:41:57.120Z,25.40
2022-08-09T19:44:25.471Z,25.30
2022-08-09T19:46:53.843Z,25.30
2022-08-09T19:50:09.375Z,25.30
2022-08-09T19:52:12.358Z,25.20
2022-08-09T19:54:40.469Z,25.10
2022-08-09T19:57:09.286Z,25.00
2022-08-09T19:59:58.308Z,25.00
2022-08-09T20:04:29.854Z,24.90
2022-08-09T20:05:14.867Z,24.90
2022-08-09T20:07:59.520Z,24.90
2022-08-09T20:10:34.453Z,24.80
2022-08-09T20:13:03.024Z,24.70
2022-08-09T20:16:33.029Z,24.70
2022-08-09T20:18:19.730Z,24.60
2022-08-09T20:20:50.394Z,24.60
2022-08-09T20:23:20.381Z,24.60
2022-08-09T20:25:52.823Z,24.60
2022-08-09T20:28:28.005Z,24.50
2022-08-09T20:31:09.104Z,24.50
2022-08-09T20:33:43.905Z,24.40
2022-08-09T20:36:13.783Z,24.40
2022-08-09T20:39:17.060Z,24.40
2022-08-09T20:41:35.114Z,24.40
2022-08-09T20:44:06.843Z,24.30
2022-08-09T20:46:43.210Z,24.30
2022-08-09T20:49:13.086Z,24.30
2022-08-09T20:51:42.956Z,24.30
2022-08-09T20:54:12.465Z,24.30
2022-08-09T20:56:47.312Z,24.30
2022-08-09T20:59:50.303Z,24.20
2022-08-09T21:02:10.890Z,24.20
2022-08-09T21:05:52.140Z,24.20
2022-08-09T21:07:38.482Z,24.20
2022-08-09T21:10:08.408Z,24.20
2022-08-09T21:12:37.844Z,24.20
2022-08-09T21:15:12.775Z,24.20
2022-08-09T21:18:11.395Z,24.20
2022-08-09T21:20:29.825Z,24.10
2022-08-09T21:23:00.516Z,24.10
2022-08-09T21:25:55.907Z,24.00
2022-08-09T21:28:33.436Z,24.00
2022-08-09T21:31:13.676Z,23.90
2022-08-09T21:33:50.237Z,23.90
2022-08-09T21:36:19.842Z,23.90
2022-08-09T21:38:56.604Z,23.80
2022-08-09T21:41:59.877Z,23.80
2022-08-09T21:44:12.778Z,23.80
2022-08-09T21:46:43.307Z,23.70
2022-08-09T21:49:11.824Z,23.70
2022-08-09T21:51:43.515Z,23.70
2022-08-09T21:54:13.106Z,23.70
2022-08-09T21:56:44.596Z,23.60
2022-08-09T21:59:23.170Z,23.60
2022-08-09T22:01:59.361Z,23.60
2022-08-09T22:04:33.580Z,23.50
2022-08-09T22:07:35.211Z,23.60
2022-08-09T22:10:05.873Z,23.50
2022-08-09T22:12:33.992Z,23.50
2022-08-09T22:15:01.831Z,23.50
2022-08-09T22:17:32.081Z,23.50
2022-08-09T22:20:01.068Z,23.40
2022-08-09T22:22:28.970Z,23.40
2022-08-09T22:26:07.517Z,23.30
2022-08-09T22:27:45.793Z,23.30
2022-08-09T22:30:26.342Z,23.30
2022-08-09T22:33:01.619Z,23.20
2022-08-09T22:36:02.120Z,23.20
2022-08-09T22:38:17.279Z,23.10
2022-08-09T22:40:49.120Z,23.10
2022-08-09T22:44:03.443Z,23.10
2022-08-09T22:48:11.986Z,23.10
2022-08-09T22:49:07.505Z,23.00
2022-08-09T22:51:43.348Z,23.00
2022-08-09T22:54:21.301Z,23.00
2022-08-09T22:56:50.751Z,22.90
2022-08-09T22:59:57.482Z,22.90
2022-08-09T23:02:15.893Z,22.90
2022-08-09T23:04:53.981Z,22.80
2022-08-09T23:08:21.871Z,22.80
2022-08-09T23:10:28.691Z,22.80
2022-08-09T23:12:56.470Z,22.70
2022-08-09T23:15:25.570Z,22.70
2022-08-09T23:17:53.659Z,22.70
2022-08-09T23:20:21.489Z,22.70
2022-08-09T23:22:49.206Z,22.70
2022-08-09T23:25:17.055Z,22.70
2022-08-09T23:28:14.073Z,22.70
2022-08-09T23:30:33.868Z,22.70
2022-08-09T23:33:01.580Z,22.60
2022-08-09T23:35:29.343Z,22.60
2022-08-09T23:37:57.142Z,22.60
2022-08-09T23:40:24.875Z,22.60
2022-08-09T23:42:52.596Z,22.50
2022-08-09T23:45:37.463Z,22.50
2022-08-09T23:48:09.052Z,22.40
2022-08-09T23:50:37.086Z,22.40
2022-08-09T23:53:05.502Z,22.40
2022-08-09T23:55:37.815Z,22.40
2022-08-09T23:58:10.608Z,22.30
